Time;durP1;ratioP1;P1;durP2;ratioP2;P2;SDS_P1;SDS_P2;PMS_P1;PMS_P2;Temp;Humidity;BMP_temperature;BMP_pressure;BME280_temperature;BME280_humidity;BME280_pressure;Samples;Min_cycle;Max_cycle;Signal;HPM_P1;HPM_P2
2022/06/24 00:01:12;;;;;;;33.65;5.00;;;;;;;22.53;100.00;94248.31;4999667;28;20077;-88
2022/06/24 00:03:38;;;;;;;31.95;4.43;;;;;;;22.50;100.00;94238.31;4999917;28;20037;-89
2022/06/24 00:06:12;;;;;;;31.13;4.47;;;;;;;22.52;100.00;94247.53;4983393;28;20030;-89
2022/06/24 00:08:58;;;;;;;38.63;5.15;;;;;;;22.61;100.00;94247.34;4999523;28;20022;-88
2022/06/24 00:11:27;;;;;;;36.83;5.32;;;;;;;22.50;100.00;94244.44;5019916;28;20473;-88
2022/06/24 00:14:08;;;;;;;35.65;5.00;;;;;;;22.55;100.00;94246.81;4987581;28;20087;-88
2022/06/24 00:16:56;;;;;;;23.20;4.15;;;;;;;22.56;100.00;94243.03;4987179;28;20044;-88
2022/06/24 00:19:25;;;;;;;37.53;6.15;;;;;;;22.67;100.00;94234.50;5003451;28;20034;-88
2022/06/24 00:22:04;;;;;;;44.85;4.70;;;;;;;22.52;100.00;94228.84;5003806;28;20415;-88
2022/06/24 00:24:31;;;;;;;39.03;5.15;;;;;;;22.47;100.00;94234.44;5002661;28;20095;-88
2022/06/24 00:26:56;;;;;;;32.75;4.95;;;;;;;22.42;100.00;94243.47;4987174;28;20188;-89
2022/06/24 00:29:26;;;;;;;43.63;5.40;;;;;;;22.27;100.00;94238.91;5002804;28;20442;-89
2022/06/24 00:32:01;;;;;;;34.83;4.70;;;;;;;22.31;100.00;94231.75;5002960;28;20061;-88
2022/06/24 00:34:27;;;;;;;48.60;6.28;;;;;;;22.27;100.00;94245.00;5020467;28;20401;-89
2022/06/24 00:36:52;;;;;;;44.92;4.68;;;;;;;22.38;100.00;94228.47;4983640;28;20149;-89
2022/06/24 00:39:18;;;;;;;35.55;5.32;;;;;;;22.30;100.00;94227.53;4983886;28;20085;-89
2022/06/24 00:41:49;;;;;;;38.65;5.63;;;;;;;22.07;100.00;94225.47;4991572;28;20040;-88
2022/06/24 00:44:16;;;;;;;32.00;4.85;;;;;;;21.92;100.00;94220.91;4987138;28;20033;-89
2022/06/24 00:46:50;;;;;;;38.15;4.75;;;;;;;21.98;100.00;94211.56;4983010;28;20111;-89
2022/06/24 00:49:23;;;;;;;38.88;5.80;;;;;;;22.13;100.00;94218.78;4967686;28;20342;-89
2022/06/24 00:51:49;;;;;;;32.45;5.57;;;;;;;22.07;100.00;94204.13;4983610;28;20419;-89
2022/06/24 00:54:15;;;;;;;29.50;4.90;;;;;;;21.92;100.00;94207.56;4983118;28;20077;-88
2022/06/24 00:56:41;;;;;;;37.20;4.88;;;;;;;21.80;100.00;94201.19;4967340;28;20124;-88
2022/06/24 00:59:07;;;;;;;49.88;5.53;;;;;;;21.59;100.00;94206.72;4982522;28;20120;-89
2022/06/24 01:01:33;;;;;;;41.33;5.65;;;;;;;21.73;100.00;94209.03;4967091;28;20030;-89
2022/06/24 01:04:00;;;;;;;41.63;5.30;;;;;;;21.73;100.00;94201.81;4999874;28;20454;-88
2022/06/24 01:06:27;;;;;;;33.67;5.07;;;;;;;21.72;100.00;94202.16;4982740;28;20281;-89
2022/06/24 01:08:52;;;;;;;35.15;4.68;;;;;;;21.71;100.00;94195.28;4966576;28;20061;-89
2022/06/24 01:11:31;;;;;;;36.45;5.05;;;;;;;21.47;100.00;94192.38;4966938;28;20363;-89
2022/06/24 01:13:56;;;;;;;37.08;4.60;;;;;;;21.20;100.00;94193.91;4966272;28;20085;-90
2022/06/24 01:16:23;;;;;;;41.83;4.65;;;;;;;20.94;100.00;94179.13;4982064;28;20026;-89
2022/06/24 01:18:53;;;;;;;38.03;4.55;;;;;;;20.76;100.00;94189.28;4982709;28;20065;-89
2022/06/24 01:21:38;;;;;;;30.58;4.78;;;;;;;20.60;100.00;94178.53;4982660;28;20030;-88
2022/06/24 01:24:08;;;;;;;32.40;5.32;;;;;;;20.54;100.00;94185.97;4982457;28;20030;-88
2022/06/24 01:26:40;;;;;;;35.35;4.22;;;;;;;20.39;100.00;94184.78;4983252;28;20033;-90
2022/06/24 01:29:30;;;;;;;43.80;5.47;;;;;;;20.36;100.00;94176.69;4966226;28;20440;-89
2022/06/24 01:31:56;;;;;;;23.95;4.57;;;;;;;20.16;100.00;94171.94;4975010;28;20038;-89
2022/06/24 01:34:23;;;;;;;27.05;4.65;;;;;;;20.13;100.00;94167.28;4999873;28;20415;-88
2022/06/24 01:36:50;;;;;;;48.38;5.80;;;;;;;20.22;100.00;94159.19;4966291;28;20034;-90
2022/06/24 01:39:15;;;;;;;39.15;4.97;;;;;;;20.37;100.00;94157.75;4982297;28;20313;-90
2022/06/24 01:41:41;;;;;;;45.17;5.80;;;;;;;20.28;100.00;94165.06;4982096;28;20018;-90
2022/06/24 01:44:07;;;;;;;29.80;4.53;;;;;;;20.61;100.00;94166.78;4966120;28;20032;-89
2022/06/24 01:46:33;;;;;;;29.42;4.75;;;;;;;20.79;100.00;94161.19;4966056;28;20030;-88
2022/06/24 01:48:58;;;;;;;32.35;5.60;;;;;;;20.82;100.00;94158.66;4982163;28;20026;-90
2022/06/24 01:51:25;;;;;;;35.92;4.97;;;;;;;20.54;100.00;94163.91;4965969;28;20085;-89
2022/06/24 01:53:50;;;;;;;39.15;5.38;;;;;;;20.73;100.00;94169.41;4982203;28;20336;-90
2022/06/24 01:56:17;;;;;;;40.97;4.90;;;;;;;20.80;100.00;94157.41;4999270;28;20027;-89
2022/06/24 01:58:43;;;;;;;42.80;6.53;;;;;;;21.00;100.00;94159.16;4982060;28;20137;-89
2022/06/24 02:01:08;;;;;;;44.22;6.00;;;;;;;20.96;100.00;94157.50;4999753;28;20395;-88
2022/06/24 02:03:34;;;;;;;38.30;5.95;;;;;;;20.85;100.00;94147.31;4966037;28;20026;-90
2022/06/24 02:06:05;;;;;;;36.95;5.82;;;;;;;20.96;100.00;94147.63;4981617;28;20037;-89
2022/06/24 02:08:30;;;;;;;50.42;6.32;;;;;;;21.36;100.00;94146.00;4981980;28;20042;-87
2022/06/24 02:13:42;;;;;;;37.55;6.03;;;;;;;21.27;100.00;94164.81;4984487;28;20077;-89
2022/06/24 02:16:07;;;;;;;37.05;5.18;;;;;;;21.22;100.00;94156.28;4981713;28;20026;-88
2022/06/24 02:18:33;;;;;;;36.65;5.38;;;;;;;20.97;100.00;94151.84;4965479;28;20088;-89
2022/06/24 02:21:00;;;;;;;40.55;5.88;;;;;;;20.72;100.00;94156.44;4965349;28;20425;-89
2022/06/24 02:23:25;;;;;;;39.95;5.90;;;;;;;20.48;100.00;94156.16;4981629;28;20026;-89
2022/06/24 02:25:51;;;;;;;33.78;5.15;;;;;;;20.41;100.00;94145.31;4981476;28;20085;-89
2022/06/24 02:28:17;;;;;;;38.65;5.07;;;;;;;20.08;100.00;94148.09;4965991;28;20428;-88
2022/06/24 02:30:44;;;;;;;45.25;5.30;;;;;;;19.84;100.00;94150.41;4981291;28;20037;-89
2022/06/24 02:33:10;;;;;;;34.63;5.28;;;;;;;19.57;100.00;94155.25;4980821;28;20030;-89
2022/06/24 02:35:36;;;;;;;32.03;5.50;;;;;;;19.57;100.00;94143.81;4981515;28;20037;-89
2022/06/24 02:38:02;;;;;;;41.05;5.65;;;;;;;19.56;100.00;94155.56;4981729;28;20030;-88
2022/06/24 02:40:46;;;;;;;33.83;4.97;;;;;;;19.49;100.00;94154.22;4966173;28;20322;-88
2022/06/24 02:43:22;;;;;;;32.05;4.28;;;;;;;19.69;100.00;94159.03;4986318;28;20327;-88
2022/06/24 02:46:12;;;;;;;41.28;5.53;;;;;;;19.80;100.00;94156.72;4984389;28;20036;-88
2022/06/24 02:48:40;;;;;;;39.95;5.03;;;;;;;20.10;100.00;94159.97;5017053;28;20049;-88
2022/06/24 02:51:09;;;;;;;39.08;4.70;;;;;;;20.18;100.00;94161.72;5000548;28;20490;-89
2022/06/24 02:53:36;;;;;;;36.05;5.28;;;;;;;20.30;100.00;94165.50;5017708;28;20112;-89
2022/06/24 02:56:11;;;;;;;59.67;6.18;;;;;;;20.44;100.00;94159.81;4984410;28;20022;-88
2022/06/24 02:58:37;;;;;;;36.72;4.53;;;;;;;20.39;100.00;94162.72;5000120;28;20084;-89
2022/06/24 03:01:03;;;;;;;44.88;4.65;;;;;;;20.38;100.00;94161.94;5000465;28;20030;-89
2022/06/24 03:03:29;;;;;;;31.55;4.47;;;;;;;20.45;100.00;94162.16;4984563;28;20120;-89
2022/06/24 03:05:55;;;;;;;25.27;3.80;;;;;;;20.34;100.00;94159.19;5000198;28;20053;-88
2022/06/24 03:08:22;;;;;;;38.30;4.32;;;;;;;20.38;100.00;94158.50;4983747;28;20111;-89
2022/06/24 03:10:49;;;;;;;26.25;3.78;;;;;;;20.40;100.00;94154.41;5000067;28;20145;-89
2022/06/24 03:13:15;;;;;;;32.60;4.30;;;;;;;20.36;100.00;94152.75;5000042;28;20513;-89
2022/06/24 03:15:41;;;;;;;43.80;4.55;;;;;;;20.38;100.00;94161.94;4984104;28;20169;-88
2022/06/24 03:18:06;;;;;;;25.00;4.00;;;;;;;20.35;100.00;94151.97;5000209;28;20036;-89
2022/06/24 03:20:35;;;;;;;28.08;4.47;;;;;;;20.32;100.00;94157.94;4999846;28;20339;-89
2022/06/24 03:23:01;;;;;;;20.63;4.57;;;;;;;20.18;100.00;94156.41;4983400;28;20038;-89
2022/06/24 03:25:27;;;;;;;24.27;3.97;;;;;;;20.05;100.00;94154.84;4999960;28;20037;-88
2022/06/24 03:27:52;;;;;;;30.75;3.85;;;;;;;20.16;100.00;94158.63;5003883;28;20168;-89
2022/06/24 03:30:18;;;;;;;19.23;3.60;;;;;;;20.14;100.00;94162.72;4980228;28;20034;-88
2022/06/24 03:32:44;;;;;;;23.85;3.80;;;;;;;20.08;100.00;94169.38;4980304;28;20109;-89
2022/06/24 03:35:09;;;;;;;22.85;3.65;;;;;;;20.27;100.00;94164.28;4980251;28;20034;-88
2022/06/24 03:37:38;;;;;;;30.58;3.53;;;;;;;20.13;100.00;94167.28;4980291;28;20034;-89
2022/06/24 03:40:04;;;;;;;21.45;3.58;;;;;;;19.92;100.00;94172.69;4980466;28;20037;-89
2022/06/24 03:42:30;;;;;;;29.15;3.47;;;;;;;19.74;100.00;94166.78;4980199;28;20026;-89
2022/06/24 03:44:55;;;;;;;26.27;3.63;;;;;;;19.64;100.00;94168.75;4963354;28;20026;-88
2022/06/24 03:47:22;;;;;;;21.80;3.55;;;;;;;19.35;100.00;94164.38;4997620;28;20049;-88
2022/06/24 03:49:47;;;;;;;30.05;3.67;;;;;;;19.02;100.00;94165.16;4980100;28;20080;-88
2022/06/24 03:52:14;;;;;;;26.48;4.13;;;;;;;19.04;100.00;94166.38;4996382;28;20026;-88
2022/06/24 03:54:39;;;;;;;19.15;2.90;;;;;;;19.24;100.00;94171.19;4964248;28;20027;-88
2022/06/24 03:57:05;;;;;;;26.38;3.95;;;;;;;18.98;100.00;94169.50;4997703;28;20026;-88
2022/06/24 03:59:30;;;;;;;22.23;3.50;;;;;;;18.96;100.00;94172.50;4979973;28;20068;-88
2022/06/24 04:01:57;;;;;;;19.90;3.30;;;;;;;19.18;100.00;94174.06;4980472;28;20176;-89
2022/06/24 04:04:23;;;;;;;18.00;3.63;;;;;;;19.13;100.00;94181.47;4979998;28;20072;-90
2022/06/24 04:06:48;;;;;;;21.40;3.20;;;;;;;19.20;100.00;94179.03;4963558;28;20510;-88
2022/06/24 04:09:14;;;;;;;23.52;3.85;;;;;;;19.02;100.00;94194.38;4980090;28;20030;-88
2022/06/24 04:11:39;;;;;;;14.38;3.03;;;;;;;18.91;100.00;94194.72;4964141;28;20184;-89
2022/06/24 04:14:05;;;;;;;17.35;2.70;;;;;;;18.73;100.00;94190.66;4980046;28;20030;-88
2022/06/24 04:16:31;;;;;;;29.90;3.03;;;;;;;18.51;100.00;94195.94;4963986;28;20034;-89
2022/06/24 04:18:57;;;;;;;19.67;3.67;;;;;;;18.49;100.00;94198.09;4979836;28;20034;-89
2022/06/24 04:21:22;;;;;;;25.45;3.55;;;;;;;18.51;100.00;94203.09;4964042;28;20165;-89
2022/06/24 04:23:54;;;;;;;15.23;2.90;;;;;;;18.63;100.00;94202.41;4979916;28;20030;-89
2022/06/24 04:26:20;;;;;;;23.83;3.55;;;;;;;18.72;100.00;94202.34;4979670;28;20037;-89
2022/06/24 04:28:46;;;;;;;25.05;4.22;;;;;;;18.68;100.00;94209.41;4979440;28;20053;-88
2022/06/24 04:31:13;;;;;;;31.15;3.58;;;;;;;18.58;100.00;94195.44;4979873;28;20057;-89
2022/06/24 04:33:39;;;;;;;21.45;4.00;;;;;;;18.66;100.00;94191.16;4979473;28;20026;-89
2022/06/24 04:36:14;;;;;;;16.83;3.30;;;;;;;18.83;100.00;94197.44;4963756;28;20026;-88
2022/06/24 04:38:40;;;;;;;20.50;3.05;;;;;;;18.84;100.00;94196.34;4979419;28;20033;-89
2022/06/24 04:41:11;;;;;;;19.67;4.00;;;;;;;18.45;100.00;94193.78;4963753;28;20038;-89
2022/06/24 04:43:36;;;;;;;21.27;3.10;;;;;;;18.70;100.00;94196.56;4979684;28;20335;-88
2022/06/24 04:46:01;;;;;;;16.58;3.30;;;;;;;18.78;100.00;94190.44;4979505;28;20031;-89
2022/06/24 04:48:30;;;;;;;15.27;2.65;;;;;;;18.94;100.00;94193.31;4979705;28;20046;-89
2022/06/24 04:50:55;;;;;;;23.20;3.90;;;;;;;18.68;100.00;94191.63;4979888;28;20026;-89
2022/06/24 04:53:20;;;;;;;20.27;3.47;;;;;;;18.86;100.00;94196.78;4963467;28;20026;-89
2022/06/24 04:55:53;;;;;;;21.65;3.20;;;;;;;18.88;100.00;94186.63;4979949;28;20026;-89
2022/06/24 04:58:19;;;;;;;16.00;2.80;;;;;;;19.01;100.00;94180.28;5000412;28;20026;-87
2022/06/24 05:00:44;;;;;;;17.73;3.35;;;;;;;18.74;100.00;94174.38;5000461;28;20030;-88
2022/06/24 05:03:10;;;;;;;15.35;2.95;;;;;;;18.95;100.00;94176.28;4982973;28;20036;-87
2022/06/24 05:05:35;;;;;;;16.02;3.00;;;;;;;19.33;100.00;94185.94;4983210;28;20038;-88
2022/06/24 05:08:00;;;;;;;13.02;2.92;;;;;;;19.54;100.00;94193.09;4983325;28;20297;-89
2022/06/24 05:10:26;;;;;;;15.85;3.13;;;;;;;19.34;100.00;94210.63;4982822;28;20117;-86
2022/06/24 05:12:51;;;;;;;22.52;2.95;;;;;;;19.73;100.00;94199.78;5000034;28;20486;-87
2022/06/24 05:15:19;;;;;;;14.80;2.40;;;;;;;20.13;93.32;94206.38;4983028;28;20026;-88
2022/06/24 05:17:50;;;;;;;15.52;2.45;;;;;;;20.34;90.48;94208.94;4999083;28;20030;-87
2022/06/24 05:20:18;;;;;;;14.98;2.38;;;;;;;20.29;95.87;94206.50;5000159;28;20432;-87
2022/06/24 05:22:43;;;;;;;15.50;2.38;;;;;;;20.43;95.13;94214.13;4983096;28;20026;-87
2022/06/24 05:25:09;;;;;;;12.07;2.47;;;;;;;20.49;90.33;94218.13;4966383;28;20039;-90
2022/06/24 05:27:35;;;;;;;16.02;2.38;;;;;;;20.59;91.88;94227.56;4966520;28;20026;-89
2022/06/24 05:30:00;;;;;;;8.73;2.10;;;;;;;20.64;84.24;94227.31;4982628;28;20026;-92
2022/06/24 05:32:31;;;;;;;13.98;2.22;;;;;;;20.77;82.12;94228.09;4982332;28;20022;-92
2022/06/24 05:34:57;;;;;;;12.18;1.80;;;;;;;20.98;77.22;94227.19;4993311;28;20069;-92
2022/06/24 05:37:22;;;;;;;10.55;2.03;;;;;;;21.02;77.58;94226.16;4985754;28;20375;-90
2022/06/24 05:39:48;;;;;;;6.60;1.75;;;;;;;21.13;78.54;94229.13;5001816;28;20030;-87
2022/06/24 05:42:13;;;;;;;11.85;2.17;;;;;;;21.30;75.32;94221.97;5019067;28;20031;-88
2022/06/24 05:44:38;;;;;;;8.73;2.00;;;;;;;21.28;76.06;94221.53;5001707;28;20033;-88
2022/06/24 05:47:04;;;;;;;10.35;2.33;;;;;;;21.47;75.55;94221.69;5019253;28;20525;-86
2022/06/24 05:49:29;;;;;;;14.30;1.95;;;;;;;21.48;75.80;94214.44;4985329;28;20021;-88
2022/06/24 05:51:55;;;;;;;9.70;2.22;;;;;;;21.72;78.84;94213.56;4985264;28;20077;-86
2022/06/24 05:57:08;;;;;;;17.85;2.20;;;;;;;21.78;83.65;94227.44;5019121;28;20080;-87
2022/06/24 05:59:37;;;;;;;12.38;1.95;;;;;;;21.88;71.55;94215.50;5018819;28;20080;-89
2022/06/24 06:02:04;;;;;;;8.68;2.22;;;;;;;21.67;74.17;94211.16;5001750;28;20056;-87
2022/06/24 06:04:30;;;;;;;14.75;2.60;;;;;;;21.72;74.48;94200.25;5001589;28;20072;-87
2022/06/24 06:06:55;;;;;;;12.88;2.20;;;;;;;21.88;70.26;94196.84;5018651;28;20034;-86
2022/06/24 06:09:24;;;;;;;9.70;1.67;;;;;;;21.99;66.61;94191.75;5000042;28;20026;-87
2022/06/24 06:11:49;;;;;;;9.40;1.85;;;;;;;22.16;68.67;94183.41;5001122;28;20036;-86
2022/06/24 06:14:18;;;;;;;13.43;1.75;;;;;;;22.29;69.49;94205.41;5018454;28;20443;-86
2022/06/24 06:16:47;;;;;;;6.63;1.60;;;;;;;22.30;63.75;94195.53;5018316;28;20057;-86
2022/06/24 06:19:12;;;;;;;10.52;2.00;;;;;;;22.16;65.49;94207.41;4981330;28;20431;-86
2022/06/24 06:21:38;;;;;;;9.32;1.77;;;;;;;22.34;62.56;94204.38;4965377;28;20132;-87
2022/06/24 06:24:04;;;;;;;9.07;1.70;;;;;;;22.48;63.72;94192.50;4999009;28;20027;-87
2022/06/24 06:26:29;;;;;;;6.78;1.58;;;;;;;22.57;67.42;94195.78;4981440;28;20128;-85
2022/06/24 06:28:55;;;;;;;12.52;2.38;;;;;;;22.78;84.28;94192.78;4998703;28;20338;-86
2022/06/24 06:31:20;;;;;;;15.32;2.20;;;;;;;22.92;100.00;94183.53;4981143;28;20050;-86
2022/06/24 06:33:46;;;;;;;24.23;3.05;;;;;;;22.95;100.00;94191.59;4981153;28;20026;-86
2022/06/24 06:36:12;;;;;;;21.80;3.15;;;;;;;22.65;100.00;94192.13;4981289;28;20057;-87
2022/06/24 06:38:38;;;;;;;19.90;3.47;;;;;;;22.80;100.00;94192.41;4997456;28;20379;-86
2022/06/24 06:41:06;;;;;;;17.17;3.10;;;;;;;22.80;100.00;94195.09;4980983;28;20023;-85
2022/06/24 06:43:31;;;;;;;21.75;3.40;;;;;;;22.94;100.00;94187.38;4997193;28;20422;-86
2022/06/24 06:45:57;;;;;;;10.50;2.58;;;;;;;23.00;98.84;94196.66;4964869;28;20030;-86
2022/06/24 06:48:23;;;;;;;21.48;3.53;;;;;;;22.98;98.76;94206.94;4980822;28;20042;-86
2022/06/24 06:50:58;;;;;;;21.73;2.92;;;;;;;23.18;96.25;94212.28;4980679;28;20081;-87
2022/06/24 06:53:26;;;;;;;12.77;2.85;;;;;;;23.23;99.86;94220.00;4983439;28;20034;-86
2022/06/24 06:55:52;;;;;;;12.63;2.80;;;;;;;23.39;100.00;94216.53;4984226;28;20033;-86
2022/06/24 06:58:24;;;;;;;21.05;2.90;;;;;;;23.34;100.00;94214.13;5000192;28;20033;-86
2022/06/24 07:00:49;;;;;;;18.27;2.38;;;;;;;23.48;99.02;94218.97;4984384;28;20057;-87
2022/06/24 07:03:15;;;;;;;18.15;2.67;;;;;;;23.34;72.22;94219.47;5000916;28;20076;-87
2022/06/24 07:05:44;;;;;;;11.77;2.22;;;;;;;23.85;74.00;94218.47;4983923;28;20121;-86
2022/06/24 07:08:19;;;;;;;11.10;2.22;;;;;;;23.85;85.24;94224.63;5000475;28;20064;-86
2022/06/24 07:10:45;;;;;;;12.57;2.40;;;;;;;23.79;71.53;94230.63;4983892;28;20029;-86
2022/06/24 07:13:11;;;;;;;10.40;1.85;;;;;;;24.16;72.99;94226.66;5000001;28;20030;-87
2022/06/24 07:15:37;;;;;;;20.17;2.60;;;;;;;24.00;87.13;94224.84;4984158;28;20029;-86
2022/06/24 07:18:03;;;;;;;14.40;2.95;;;;;;;24.24;73.96;94222.94;4999815;28;20120;-87
2022/06/24 07:20:28;;;;;;;13.75;2.45;;;;;;;24.23;75.28;94216.06;4999767;28;20542;-86
2022/06/24 07:22:54;;;;;;;19.58;2.35;;;;;;;24.41;89.16;94227.06;4999983;28;20032;-85
2022/06/24 07:25:20;;;;;;;19.23;2.50;;;;;;;24.01;73.46;94221.81;4999674;28;20030;-86
2022/06/24 07:27:45;;;;;;;12.75;2.20;;;;;;;24.42;74.11;94215.22;4999516;28;20351;-86
2022/06/24 07:30:11;;;;;;;12.55;2.05;;;;;;;24.79;70.63;94211.94;4999625;28;20030;-86
2022/06/24 07:32:36;;;;;;;14.07;2.20;;;;;;;24.40;60.05;94217.47;5017041;28;20045;-86
2022/06/24 07:35:02;;;;;;;11.55;2.25;;;;;;;24.62;60.58;94204.41;4999783;28;20408;-87
2022/06/24 07:37:27;;;;;;;14.68;2.00;;;;;;;24.57;60.70;94203.56;4999699;28;20030;-86
2022/06/24 07:39:53;;;;;;;9.27;2.00;;;;;;;25.06;64.08;94216.47;4982837;28;20032;-87
2022/06/24 07:42:18;;;;;;;11.90;2.38;;;;;;;25.41;64.60;94210.00;4983514;28;20133;-86
2022/06/24 07:44:44;;;;;;;16.00;2.10;;;;;;;25.45;62.79;94210.03;4999476;28;20057;-85
2022/06/24 07:47:10;;;;;;;7.88;2.00;;;;;;;25.29;57.70;94204.88;4999256;28;20026;-86
2022/06/24 07:49:36;;;;;;;13.50;2.03;;;;;;;25.70;59.19;94207.66;4983198;28;20501;-85
2022/06/24 07:52:01;;;;;;;6.65;1.70;;;;;;;26.00;57.51;94209.44;5016851;28;20025;-86
2022/06/24 07:54:27;;;;;;;16.38;2.28;;;;;;;25.87;59.46;94208.19;5016858;28;20022;-86
2022/06/24 07:56:58;;;;;;;4.68;1.58;;;;;;;25.13;54.38;94203.19;4999326;28;20401;-86
2022/06/24 07:59:25;;;;;;;9.00;1.90;;;;;;;26.17;54.75;94197.31;5000025;28;20316;-86
2022/06/24 08:01:52;;;;;;;15.25;2.40;;;;;;;26.50;51.15;94197.56;4983496;28;20120;-87
2022/06/24 08:04:18;;;;;;;16.10;2.33;;;;;;;26.56;53.32;94196.09;4999546;28;20026;-86
2022/06/24 08:06:46;;;;;;;7.10;1.77;;;;;;;26.70;53.55;94186.56;4999314;28;20030;-86
2022/06/24 08:09:14;;;;;;;9.13;2.20;;;;;;;26.92;49.72;94179.41;5016646;28;20030;-86
2022/06/24 08:11:40;;;;;;;11.82;2.25;;;;;;;26.29;51.74;94180.19;4983200;28;20026;-86
2022/06/24 08:14:06;;;;;;;10.75;1.95;;;;;;;26.67;51.78;94172.72;4999483;28;20377;-86
2022/06/24 08:16:31;;;;;;;15.70;2.78;;;;;;;26.55;51.98;94178.44;4999188;28;20022;-86
2022/06/24 08:18:59;;;;;;;11.95;1.85;;;;;;;26.73;52.21;94177.75;4998736;28;20124;-86
2022/06/24 08:21:24;;;;;;;11.90;1.65;;;;;;;26.61;50.08;94181.50;4999050;28;20062;-87
2022/06/24 08:23:53;;;;;;;11.27;2.50;;;;;;;26.44;54.08;94175.66;4999335;28;20031;-87
2022/06/24 08:26:18;;;;;;;12.90;2.38;;;;;;;26.73;53.58;94177.75;4999043;28;20342;-86
2022/06/24 08:28:44;;;;;;;12.85;2.22;;;;;;;26.67;56.61;94185.41;4998920;28;20102;-86
2022/06/24 08:31:10;;;;;;;8.73;1.88;;;;;;;26.50;54.56;94184.13;5000178;28;20026;-86
2022/06/24 08:33:36;;;;;;;11.25;2.03;;;;;;;27.14;52.13;94182.19;4986722;28;20029;-87
2022/06/24 08:36:02;;;;;;;7.45;1.58;;;;;;;27.53;52.29;94168.09;5020445;28;20022;-86
2022/06/24 08:38:28;;;;;;;15.35;1.90;;;;;;;27.61;51.52;94176.97;5002725;28;20033;-86
2022/06/24 08:40:54;;;;;;;10.82;2.05;;;;;;;27.50;49.29;94176.91;5002631;28;20359;-86
2022/06/24 08:43:30;;;;;;;8.93;2.10;;;;;;;27.62;46.57;94183.88;4986482;28;20022;-86
2022/06/24 08:45:57;;;;;;;11.43;2.05;;;;;;;27.80;43.11;94184.66;5003671;28;20391;-87
2022/06/24 08:48:23;;;;;;;13.25;2.53;;;;;;;27.94;46.63;94186.63;5002993;28;20029;-87
2022/06/24 08:50:48;;;;;;;9.25;2.00;;;;;;;27.06;49.83;94192.91;5002648;28;20117;-87
2022/06/24 08:53:19;;;;;;;13.15;1.50;;;;;;;27.09;42.95;94192.16;5002866;28;20120;-88
2022/06/24 08:55:48;;;;;;;10.05;1.27;;;;;;;26.80;46.44;94191.22;5003066;28;20065;-87
2022/06/24 08:58:17;;;;;;;8.95;1.58;;;;;;;26.82;43.90;94181.63;5020174;28;20050;-86
2022/06/24 09:00:43;;;;;;;5.97;1.55;;;;;;;26.51;43.62;94183.78;5019092;28;20124;-95
2022/06/24 09:03:12;;;;;;;9.18;1.73;;;;;;;27.85;45.77;94183.53;4989981;28;20033;-95
2022/06/24 09:05:37;;;;;;;5.70;1.38;;;;;;;26.94;44.21;94183.25;4989595;28;20034;-85
2022/06/24 09:08:06;;;;;;;8.07;1.50;;;;;;;28.14;44.56;94180.09;5013754;28;20446;-92
2022/06/24 09:10:37;;;;;;;7.88;1.60;;;;;;;27.99;50.45;94187.38;5004053;28;20176;-93
2022/06/24 09:13:03;;;;;;;11.05;1.42;;;;;;;28.14;53.53;94178.16;5005174;28;20022;-92
2022/06/24 09:15:28;;;;;;;6.57;1.73;;;;;;;27.79;48.11;94188.50;5003650;28;20026;-93
2022/06/24 09:17:54;;;;;;;10.30;1.50;;;;;;;28.36;47.03;94200.47;5019770;28;20032;-92
2022/06/24 09:20:30;;;;;;;13.30;2.15;;;;;;;27.19;45.87;94206.78;4987071;28;20029;-91
2022/06/24 09:23:10;;;;;;;7.47;1.30;;;;;;;26.33;47.48;94196.31;4986907;28;20084;-91
2022/06/24 09:25:44;;;;;;;6.13;1.73;;;;;;;26.28;48.19;94205.50;4987059;28;20176;-88
2022/06/24 09:28:13;;;;;;;13.60;2.08;;;;;;;25.83;50.57;94206.25;5002843;28;20449;-92
2022/06/24 09:30:39;;;;;;;6.18;1.70;;;;;;;25.56;51.54;94205.59;4986799;28;20037;-89
2022/06/24 09:33:04;;;;;;;7.63;1.67;;;;;;;25.75;52.36;94201.16;4987013;28;20025;-91
2022/06/24 09:35:34;;;;;;;6.40;1.50;;;;;;;25.51;54.99;94195.19;5002149;28;20117;-90
2022/06/24 09:38:00;;;;;;;8.50;1.60;;;;;;;25.86;53.00;94196.66;4986064;28;20346;-92
2022/06/24 09:40:26;;;;;;;8.13;1.48;;;;;;;26.16;52.22;94206.50;4985977;28;20028;-92
2022/06/24 09:42:55;;;;;;;7.68;1.60;;;;;;;25.44;56.61;94201.22;5002222;28;20128;-90
2022/06/24 09:45:22;;;;;;;6.85;1.70;;;;;;;25.66;51.90;94204.94;4985955;28;20120;-92
2022/06/24 09:47:49;;;;;;;11.77;2.22;;;;;;;25.92;54.49;94197.09;4985585;28;20022;-92
2022/06/24 09:50:16;;;;;;;12.75;2.00;;;;;;;25.53;52.36;94200.97;4986479;28;20032;-92
2022/06/24 09:52:42;;;;;;;9.00;1.77;;;;;;;25.68;53.19;94191.16;5001803;28;20068;-90
2022/06/24 09:55:09;;;;;;;5.82;1.60;;;;;;;25.39;52.85;94188.13;4985552;28;20049;-90
2022/06/24 09:58:12;;;;;;;11.15;1.73;;;;;;;26.08;50.93;94186.88;4985845;28;20088;-93
2022/06/24 10:00:40;;;;;;;14.63;2.35;;;;;;;26.39;53.26;94192.88;4986903;28;20038;-91
2022/06/24 10:03:11;;;;;;;6.55;1.80;;;;;;;26.70;50.64;94195.38;5005727;28;20131;-93
2022/06/24 10:05:45;;;;;;;9.30;1.63;;;;;;;26.21;51.41;94202.72;5021351;28;20043;-93
2022/06/24 10:08:13;;;;;;;7.95;2.05;;;;;;;26.08;53.54;94208.34;5021251;28;20021;-93
2022/06/24 10:10:44;;;;;;;6.63;1.95;;;;;;;26.29;51.14;94201.66;5004820;28;20056;-93
2022/06/24 10:13:20;;;;;;;15.80;2.20;;;;;;;26.28;54.32;94210.06;5004891;28;20036;-92
2022/06/24 10:15:45;;;;;;;9.82;2.22;;;;;;;26.62;52.33;94205.31;5004751;28;20334;-93
2022/06/24 10:18:11;;;;;;;12.85;2.22;;;;;;;26.33;50.62;94199.75;5004501;28;20040;-93
2022/06/24 10:20:42;;;;;;;10.63;1.67;;;;;;;26.33;53.44;94197.06;5004640;28;20087;-92
2022/06/24 10:23:07;;;;;;;13.18;1.85;;;;;;;26.74;50.50;94188.09;5004540;28;20091;-93
2022/06/24 10:25:48;;;;;;;6.60;1.80;;;;;;;26.41;51.13;94186.41;5002838;28;20034;-92
2022/06/24 10:28:14;;;;;;;10.52;1.77;;;;;;;26.44;51.92;94191.00;5001415;28;20030;-93
2022/06/24 10:30:39;;;;;;;6.70;1.85;;;;;;;26.08;50.69;94188.81;4984567;28;20044;-92
2022/06/24 10:33:21;;;;;;;10.80;1.90;;;;;;;26.52;53.65;94200.63;5018587;28;20105;-93
2022/06/24 10:36:00;;;;;;;8.80;1.98;;;;;;;26.35;51.02;94189.41;5001200;28;20117;-91
2022/06/24 10:38:42;;;;;;;12.95;1.70;;;;;;;26.61;52.51;94189.56;5000787;28;20037;-84
2022/06/24 10:41:11;;;;;;;10.27;2.05;;;;;;;26.39;53.86;94186.75;5016220;28;20049;-85
2022/06/24 10:43:41;;;;;;;8.75;2.30;;;;;;;26.36;54.06;94176.78;5017885;28;20464;-84
2022/06/24 10:46:13;;;;;;;6.72;1.88;;;;;;;26.41;53.52;94189.09;5017904;28;20061;-85
2022/06/24 10:48:44;;;;;;;10.02;2.05;;;;;;;26.41;54.92;94199.81;5017758;28;20036;-85
2022/06/24 10:51:13;;;;;;;6.22;1.73;;;;;;;26.13;54.56;94196.50;5017859;28;20030;-84
2022/06/24 10:54:09;;;;;;;9.30;1.90;;;;;;;26.41;54.27;94199.81;5000238;28;20435;-85
2022/06/24 10:56:48;;;;;;;10.82;1.90;;;;;;;26.68;54.50;94197.69;5017850;28;20025;-84
2022/06/24 10:59:19;;;;;;;13.40;2.45;;;;;;;26.94;54.29;94187.88;4999944;28;20026;-84
2022/06/24 11:01:50;;;;;;;10.55;2.17;;;;;;;27.37;53.60;94195.31;5000103;28;20026;-84
2022/06/24 11:04:28;;;;;;;4.95;1.48;;;;;;;27.58;52.54;94183.09;5017592;28;20056;-85
2022/06/24 11:07:11;;;;;;;7.65;1.40;;;;;;;27.23;54.32;94196.81;5000231;28;20063;-84
2022/06/24 11:09:37;;;;;;;7.85;1.55;;;;;;;26.58;52.84;94196.47;4999954;28;20145;-82
2022/06/24 11:12:27;;;;;;;9.75;1.75;;;;;;;27.20;52.81;94194.13;5017099;28;20034;-85
2022/06/24 11:14:56;;;;;;;8.27;1.67;;;;;;;26.50;51.41;94192.97;5017280;28;20030;-85
2022/06/24 11:17:25;;;;;;;11.05;1.73;;;;;;;26.94;54.28;94201.31;5017408;28;20040;-85
2022/06/24 11:19:54;;;;;;;9.13;1.58;;;;;;;27.06;51.89;94200.19;4999686;28;20394;-85
2022/06/24 11:22:28;;;;;;;6.60;1.70;;;;;;;26.68;49.15;94203.84;4982801;28;20077;-84
2022/06/24 11:24:57;;;;;;;9.25;2.00;;;;;;;26.74;51.23;94198.09;4999812;28;20040;-85
2022/06/24 11:27:33;;;;;;;7.07;1.50;;;;;;;26.80;49.24;94183.16;5017250;28;20080;-85
2022/06/24 11:30:00;;;;;;;6.78;1.40;;;;;;;27.05;49.63;94195.97;4999550;28;20037;-84
2022/06/24 11:32:26;;;;;;;5.78;1.63;;;;;;;26.70;47.02;94175.81;5017123;28;20347;-85
2022/06/24 11:34:51;;;;;;;14.00;2.13;;;;;;;26.27;51.15;94184.38;5016884;28;20326;-84